Time;durP1;ratioP1;P1;durP2;ratioP2;P2;SDS_P1;SDS_P2;PMS_P1;PMS_P2;Temp;Humidity;BMP_temperature;BMP_pressure;BME280_temperature;BME280_humidity;BME280_pressure;Samples;Min_cycle;Max_cycle;Signal;HPM_P1;HPM_P2
2022/08/07 00:00:23;;;;;;;2.92;1.83;;;;;;;;;;5028154;28;20042;-77
2022/08/07 00:02:49;;;;;;;5.13;1.50;;;;;;;;;;5026320;28;20046;-80
2022/08/07 00:05:19;;;;;;;4.38;1.35;;;;;;;;;;5026813;28;20132;-79
2022/08/07 00:07:45;;;;;;;1.50;1.10;;;;;;;;;;5027473;28;20057;-80
2022/08/07 00:10:15;;;;;;;5.72;1.10;;;;;;;;;;5010476;28;20050;-81
2022/08/07 00:12:52;;;;;;;2.25;1.20;;;;;;;;;;5011312;28;20057;-80
2022/08/07 00:15:29;;;;;;;1.55;1.20;;;;;;;;;;5030736;28;20076;-80
2022/08/07 00:18:13;;;;;;;2.95;1.40;;;;;;;;;;5029089;28;20157;-80
2022/08/07 00:20:48;;;;;;;3.17;1.45;;;;;;;;;;5008283;28;20050;-80
2022/08/07 00:23:15;;;;;;;6.88;1.65;;;;;;;;;;5028543;28;20257;-80
2022/08/07 00:25:42;;;;;;;4.85;1.80;;;;;;;;;;5028377;28;20076;-80
2022/08/07 00:28:11;;;;;;;2.45;1.33;;;;;;;;;;5027279;28;20050;-80
2022/08/07 00:30:40;;;;;;;4.88;1.70;;;;;;;;;;5027845;28;20050;-80
2022/08/07 00:33:07;;;;;;;4.10;1.77;;;;;;;;;;5029530;28;20060;-80
2022/08/07 00:35:34;;;;;;;4.75;1.50;;;;;;;;;;5025147;28;20050;-80
2022/08/07 00:38:02;;;;;;;3.05;1.50;;;;;;;;;;5025345;28;20173;-81
2022/08/07 00:40:28;;;;;;;5.53;1.63;;;;;;;;;;5024884;28;20046;-80
2022/08/07 00:43:05;;;;;;;2.20;1.48;;;;;;;;;;5026729;28;20046;-80
2022/08/07 00:45:37;;;;;;;5.88;1.80;;;;;;;;;;5032324;28;20102;-80
2022/08/07 00:48:04;;;;;;;5.55;1.95;;;;;;;;;;5031581;28;20054;-80
2022/08/07 00:50:36;;;;;;;3.13;1.85;;;;;;;;;;5029819;28;20084;-80
2022/08/07 00:53:16;;;;;;;3.85;1.95;;;;;;;;;;5029730;28;20069;-80
2022/08/07 00:55:45;;;;;;;3.70;1.92;;;;;;;;;;5031703;28;20045;-80
2022/08/07 00:58:29;;;;;;;5.43;2.17;;;;;;;;;;5032715;28;20125;-80
2022/08/07 01:00:58;;;;;;;3.00;1.83;;;;;;;;;;5031226;28;20046;-80
2022/08/07 01:03:25;;;;;;;4.13;2.10;;;;;;;;;;5027797;28;20054;-81
2022/08/07 01:06:11;;;;;;;5.13;2.17;;;;;;;;;;5028827;28;20149;-81
2022/08/07 01:08:47;;;;;;;6.00;2.13;;;;;;;;;;5031248;28;20545;-80
2022/08/07 01:11:20;;;;;;;6.15;1.98;;;;;;;;;;5012118;28;20050;-80
2022/08/07 01:14:07;;;;;;;4.88;2.17;;;;;;;;;;5027539;28;20132;-80
2022/08/07 01:16:35;;;;;;;4.00;2.10;;;;;;;;;;5027246;28;20072;-79
2022/08/07 01:19:02;;;;;;;3.75;2.53;;;;;;;;;;5026565;28;20045;-80
2022/08/07 01:21:29;;;;;;;4.32;2.17;;;;;;;;;;5025761;28;20065;-80
2022/08/07 01:23:56;;;;;;;5.10;2.50;;;;;;;;;;5031012;28;20519;-80
2022/08/07 01:26:23;;;;;;;6.68;2.67;;;;;;;;;;5035208;28;20045;-81
2022/08/07 01:28:52;;;;;;;3.67;2.30;;;;;;;;;;5030225;28;20515;-80
2022/08/07 01:31:19;;;;;;;6.10;2.35;;;;;;;;;;5027773;28;20050;-81
2022/08/07 01:33:46;;;;;;;3.70;1.98;;;;;;;;;;5026681;28;20057;-81
2022/08/07 01:36:27;;;;;;;6.15;2.13;;;;;;;;;;5026194;28;20046;-80
2022/08/07 01:38:59;;;;;;;3.90;2.22;;;;;;;;;;5027968;28;20067;-80
2022/08/07 01:41:26;;;;;;;7.32;1.80;;;;;;;;;;5027360;28;20126;-81
2022/08/07 01:43:52;;;;;;;7.05;2.13;;;;;;;;;;5029969;28;20045;-81
2022/08/07 01:46:19;;;;;;;5.85;2.22;;;;;;;;;;5030742;28;20057;-80
2022/08/07 01:48:47;;;;;;;3.30;1.90;;;;;;;;;;5027488;28;20042;-81
2022/08/07 01:51:17;;;;;;;4.25;1.88;;;;;;;;;;5005876;28;20108;-80
2022/08/07 01:54:05;;;;;;;3.65;1.98;;;;;;;;;;5034759;28;20054;-80
2022/08/07 01:56:55;;;;;;;5.15;2.28;;;;;;;;;;5035829;28;20090;-80
2022/08/07 01:59:22;;;;;;;;;;;;;;;;;;5033198;28;20219;-80
2022/08/07 02:01:53;;;;;;;4.68;2.10;;;;;;;;;;5027834;28;20394;-80
2022/08/07 02:04:31;;;;;;;4.45;2.05;;;;;;;;;;5028289;28;20066;-80
2022/08/07 02:06:59;;;;;;;8.13;2.33;;;;;;;;;;5029192;28;20131;-81
2022/08/07 02:09:27;;;;;;;3.80;2.20;;;;;;;;;;5028325;28;20088;-80
2022/08/07 02:12:18;;;;;;;3.80;2.25;;;;;;;;;;5027847;28;20056;-81
2022/08/07 02:14:55;;;;;;;4.60;2.00;;;;;;;;;;5028389;28;20048;-81
2022/08/07 02:17:23;;;;;;;4.05;1.98;;;;;;;;;;5026746;28;20068;-80
2022/08/07 02:19:58;;;;;;;4.03;2.00;;;;;;;;;;5028758;28;20046;-79
2022/08/07 02:22:37;;;;;;;3.38;2.10;;;;;;;;;;5026744;28;20042;-81
2022/08/07 02:25:07;;;;;;;4.38;2.03;;;;;;;;;;5022033;28;20106;-78
2022/08/07 02:27:44;;;;;;;3.35;2.05;;;;;;;;;;5025666;28;20690;-79
2022/08/07 02:30:18;;;;;;;5.55;2.08;;;;;;;;;;5021844;28;20417;-79
2022/08/07 02:32:46;;;;;;;4.72;2.05;;;;;;;;;;5025636;28;20046;-79
2022/08/07 02:35:33;;;;;;;4.57;1.67;;;;;;;;;;5031154;28;20081;-79
2022/08/07 02:38:22;;;;;;;3.65;2.00;;;;;;;;;;5032084;28;20118;-80
2022/08/07 02:40:57;;;;;;;5.88;1.85;;;;;;;;;;5032285;28;20033;-80
2022/08/07 02:43:26;;;;;;;3.70;1.73;;;;;;;;;;5031880;28;20050;-80
2022/08/07 02:45:53;;;;;;;4.22;2.03;;;;;;;;;;5032899;28;20048;-80
2022/08/07 02:48:28;;;;;;;4.18;2.08;;;;;;;;;;5031990;28;20046;-79
2022/08/07 02:50:55;;;;;;;3.55;1.88;;;;;;;;;;5031544;28;20061;-80
2022/08/07 02:53:27;;;;;;;3.33;1.88;;;;;;;;;;5033953;28;20249;-80
2022/08/07 02:55:55;;;;;;;2.80;1.85;;;;;;;;;;5037607;28;20080;-80
2022/08/07 02:58:32;;;;;;;4.72;2.17;;;;;;;;;;5029014;28;20042;-80
2022/08/07 03:01:02;;;;;;;3.97;1.83;;;;;;;;;;5026747;28;20050;-80
2022/08/07 03:03:30;;;;;;;2.83;1.88;;;;;;;;;;5027310;28;20053;-80
2022/08/07 03:06:17;;;;;;;3.25;2.00;;;;;;;;;;5026721;28;20122;-80
2022/08/07 03:08:59;;;;;;;2.70;1.60;;;;;;;;;;5025964;28;20061;-80
2022/08/07 03:11:26;;;;;;;3.00;1.70;;;;;;;;;;5025105;28;20127;-80
2022/08/07 03:13:54;;;;;;;4.10;2.03;;;;;;;;;;5026943;28;20061;-80
2022/08/07 03:16:27;;;;;;;3.72;1.98;;;;;;;;;;5027170;28;20050;-81
2022/08/07 03:18:55;;;;;;;2.67;1.80;;;;;;;;;;5025591;28;20073;-80
2022/08/07 03:21:23;;;;;;;2.67;1.90;;;;;;;;;;5024135;28;20085;-80
2022/08/07 03:23:52;;;;;;;3.30;2.13;;;;;;;;;;5026061;28;20054;-80
2022/08/07 03:26:39;;;;;;;7.18;2.20;;;;;;;;;;5027085;28;20088;-81
2022/08/07 03:29:17;;;;;;;2.75;1.90;;;;;;;;;;5027367;28;20057;-80
2022/08/07 03:31:45;;;;;;;2.20;1.55;;;;;;;;;;5027586;28;20054;-80
2022/08/07 03:34:16;;;;;;;3.13;2.10;;;;;;;;;;5026521;28;20126;-80
2022/08/07 03:36:47;;;;;;;3.78;1.95;;;;;;;;;;5028924;28;20054;-80
2022/08/07 03:39:15;;;;;;;3.42;1.90;;;;;;;;;;5027150;28;20050;-81
2022/08/07 03:41:42;;;;;;;2.70;1.70;;;;;;;;;;5027616;28;20038;-81
2022/08/07 03:44:16;;;;;;;4.88;1.92;;;;;;;;;;5028460;28;20045;-81
2022/08/07 03:46:57;;;;;;;2.60;1.73;;;;;;;;;;5029322;28;20145;-79
2022/08/07 03:49:40;;;;;;;2.58;1.63;;;;;;;;;;5030645;28;20054;-80
2022/08/07 03:52:07;;;;;;;2.08;1.73;;;;;;;;;;5032064;28;20054;-81
2022/08/07 03:54:51;;;;;;;3.45;1.67;;;;;;;;;;5025990;28;20118;-80
2022/08/07 03:57:20;;;;;;;3.05;1.70;;;;;;;;;;5031609;28;20042;-79
2022/08/07 04:00:07;;;;;;;2.67;1.70;;;;;;;;;;5032122;28;20070;-76
2022/08/07 04:02:35;;;;;;;4.93;1.75;;;;;;;;;;5030291;28;20052;-80
2022/08/07 04:05:06;;;;;;;2.40;1.63;;;;;;;;;;5022233;28;20050;-79
2022/08/07 04:07:34;;;;;;;2.70;1.67;;;;;;;;;;5030835;28;20113;-79
2022/08/07 04:10:08;;;;;;;2.75;1.73;;;;;;;;;;5028623;28;20112;-80
2022/08/07 04:12:45;;;;;;;4.20;1.83;;;;;;;;;;5027990;28;20077;-79
2022/08/07 04:15:13;;;;;;;3.10;1.85;;;;;;;;;;5029830;28;20034;-80
2022/08/07 04:17:41;;;;;;;4.97;1.88;;;;;;;;;;5027080;28;20510;-80
2022/08/07 04:20:36;;;;;;;7.07;2.20;;;;;;;;;;5028806;28;20145;-77
2022/08/07 04:23:19;;;;;;;3.08;1.70;;;;;;;;;;5026746;28;20057;-80
2022/08/07 04:25:47;;;;;;;4.18;1.73;;;;;;;;;;5026884;28;20381;-81
2022/08/07 04:28:14;;;;;;;4.40;1.95;;;;;;;;;;5026867;28;20050;-80
2022/08/07 04:30:50;;;;;;;3.83;1.80;;;;;;;;;;5026545;28;20046;-80
2022/08/07 04:33:22;;;;;;;;;;;;;;;;;;5027425;28;20533;-80
2022/08/07 04:35:49;;;;;;;4.63;1.63;;;;;;;;;;5026923;28;20056;-80
2022/08/07 04:38:19;;;;;;;3.60;2.00;;;;;;;;;;5025975;28;20046;-80
2022/08/07 04:40:47;;;;;;;4.57;2.03;;;;;;;;;;5027367;28;20517;-79
2022/08/07 04:43:20;;;;;;;2.85;1.60;;;;;;;;;;5030974;28;20050;-80
2022/08/07 04:46:26;;;;;;;6.25;2.20;;;;;;;;;;5030978;28;20117;-80
2022/08/07 04:49:00;;;;;;;4.55;1.85;;;;;;;;;;5031731;28;20056;-80
2022/08/07 04:51:40;;;;;;;4.07;2.22;;;;;;;;;;5030500;28;20112;-80
2022/08/07 04:54:21;;;;;;;4.05;2.25;;;;;;;;;;5031681;28;20139;-81
2022/08/07 04:57:05;;;;;;;3.60;1.80;;;;;;;;;;5031094;28;20060;-80
2022/08/07 05:00:05;;;;;;;5.20;1.77;;;;;;;;;;5022661;28;20053;-79
2022/08/07 05:02:51;;;;;;;4.82;1.90;;;;;;;;;;5018846;28;20599;-80
2022/08/07 05:05:19;;;;;;;3.15;1.70;;;;;;;;;;5024010;28;20049;-81
2022/08/07 05:08:09;;;;;;;3.13;1.90;;;;;;;;;;5038203;28;20037;-81
2022/08/07 05:10:37;;;;;;;5.32;1.90;;;;;;;;;;5037403;28;20072;-81
2022/08/07 05:13:22;;;;;;;5.40;2.10;;;;;;;;;;5017168;28;20092;-80
2022/08/07 05:16:16;;;;;;;2.30;1.60;;;;;;;;;;5016262;28;20060;-79
2022/08/07 05:18:53;;;;;;;2.90;1.60;;;;;;;;;;5015641;28;20132;-82
2022/08/07 05:21:22;;;;;;;4.95;1.70;;;;;;;;;;5019902;28;20077;-79
2022/08/07 05:24:09;;;;;;;4.88;1.58;;;;;;;;;;5018594;28;20058;-79
2022/08/07 05:26:37;;;;;;;3.83;1.52;;;;;;;;;;5020582;28;20475;-80
2022/08/07 05:29:06;;;;;;;5.15;1.50;;;;;;;;;;5021515;28;20053;-79
2022/08/07 05:31:37;;;;;;;2.63;1.38;;;;;;;;;;5024325;28;20077;-80
2022/08/07 05:34:05;;;;;;;9.13;1.63;;;;;;;;;;5030119;28;20053;-80
2022/08/07 05:36:39;;;;;;;1.95;1.30;;;;;;;;;;5034560;28;20053;-80
2022/08/07 05:39:06;;;;;;;2.15;1.35;;;;;;;;;;5023660;28;20502;-80
2022/08/07 05:41:53;;;;;;;2.88;1.10;;;;;;;;;;5022541;28;20085;-81
2022/08/07 05:44:38;;;;;;;2.83;1.27;;;;;;;;;;5034876;28;20065;-81
2022/08/07 05:47:12;;;;;;;2.40;1.00;;;;;;;;;;5024445;28;20057;-81
2022/08/07 05:49:59;;;;;;;3.83;1.40;;;;;;;;;;5024110;28;20052;-81
2022/08/07 05:52:26;;;;;;;2.88;1.08;;;;;;;;;;5024556;28;20089;-81
2022/08/07 05:54:58;;;;;;;3.28;1.08;;;;;;;;;;5022433;28;20090;-81
2022/08/07 05:57:34;;;;;;;3.25;1.08;;;;;;;;;;5011122;28;20050;-81
2022/08/07 06:00:08;;;;;;;2.35;0.80;;;;;;;;;;5010772;28;20046;-81
2022/08/07 06:02:43;;;;;;;9.43;1.30;;;;;;;;;;4993434;28;20145;-80
2022/08/07 06:05:12;;;;;;;6.47;0.90;;;;;;;;;;4989394;28;20343;-79
2022/08/07 06:07:41;;;;;;;5.93;1.10;;;;;;;;;;5001633;28;20142;-80
2022/08/07 06:10:28;;;;;;;1.70;1.13;;;;;;;;;;5015340;28;20050;-81
2022/08/07 06:12:54;;;;;;;2.67;1.20;;;;;;;;;;5022266;28;20053;-79
2022/08/07 06:15:21;;;;;;;1.90;0.98;;;;;;;;;;5016241;28;20514;-80
2022/08/07 06:18:05;;;;;;;7.00;1.10;;;;;;;;;;5018921;28;20054;-79
2022/08/07 06:20:35;;;;;;;3.33;0.80;;;;;;;;;;5015895;28;20100;-79
2022/08/07 06:23:21;;;;;;;4.57;0.93;;;;;;;;;;5012893;28;20054;-79
2022/08/07 06:26:11;;;;;;;1.83;0.93;;;;;;;;;;5018810;28;20141;-81
2022/08/07 06:28:47;;;;;;;3.60;0.80;;;;;;;;;;5023479;28;20576;-79
2022/08/07 06:31:16;;;;;;;4.15;1.00;;;;;;;;;;4988595;28;20046;-81
2022/08/07 06:33:49;;;;;;;1.73;0.88;;;;;;;;;;5007751;28;20086;-81
2022/08/07 06:36:16;;;;;;;2.65;0.90;;;;;;;;;;5006825;28;20050;-80
2022/08/07 06:39:00;;;;;;;9.05;1.27;;;;;;;;;;5006330;28;20081;-80
2022/08/07 06:41:51;;;;;;;2.42;1.00;;;;;;;;;;5005526;28;20050;-79
2022/08/07 06:44:29;;;;;;;3.15;1.08;;;;;;;;;;5005611;28;20069;-80
2022/08/07 06:47:02;;;;;;;3.15;1.10;;;;;;;;;;5004953;28;20061;-79
2022/08/07 06:49:41;;;;;;;2.30;1.00;;;;;;;;;;5005331;28;20065;-79
2022/08/07 06:52:23;;;;;;;2.10;1.10;;;;;;;;;;5003956;28;20050;-80
2022/08/07 06:55:02;;;;;;;4.03;1.13;;;;;;;;;;5008227;28;20058;-80
2022/08/07 06:57:49;;;;;;;4.38;1.30;;;;;;;;;;5008066;28;20057;-80
2022/08/07 07:00:22;;;;;;;4.70;1.10;;;;;;;;;;5008790;28;20458;-80
2022/08/07 07:02:50;;;;;;;5.47;1.20;;;;;;;;;;5007629;28;20046;-81
2022/08/07 07:05:23;;;;;;;2.05;1.02;;;;;;;;;;5025529;28;20045;-81
2022/08/07 07:08:11;;;;;;;3.78;1.00;;;;;;;;;;5024670;28;20088;-81
2022/08/07 07:10:51;;;;;;;3.20;0.95;;;;;;;;;;5025236;28;20137;-80
2022/08/07 07:13:42;;;;;;;3.05;0.82;;;;;;;;;;5026137;28;20068;-79
2022/08/07 07:16:27;;;;;;;2.55;0.88;;;;;;;;;;5019036;28;20076;-79
2022/08/07 07:18:58;;;;;;;2.88;0.77;;;;;;;;;;5023336;28;20118;-80
2022/08/07 07:21:33;;;;;;;2.22;0.80;;;;;;;;;;5018082;28;20049;-78
2022/08/07 07:24:20;;;;;;;3.78;0.70;;;;;;;;;;5014429;28;20060;-80
2022/08/07 07:26:48;;;;;;;1.60;0.60;;;;;;;;;;5023347;28;20176;-80
2022/08/07 07:29:18;;;;;;;1.50;0.52;;;;;;;;;;5027356;28;20076;-78
2022/08/07 07:32:06;;;;;;;1.88;0.70;;;;;;;;;;5026305;28;20077;-79
2022/08/07 07:34:36;;;;;;;1.90;0.75;;;;;;;;;;5019982;28;20072;-79
2022/08/07 07:37:05;;;;;;;5.13;0.68;;;;;;;;;;5017412;28;20050;-80
2022/08/07 07:39:55;;;;;;;2.70;0.80;;;;;;;;;;5019589;28;20181;-80
2022/08/07 07:42:22;;;;;;;2.28;1.05;;;;;;;;;;5024760;28;20042;-80
2022/08/07 07:44:59;;;;;;;2.28;0.75;;;;;;;;;;5025265;28;20042;-80
2022/08/07 07:47:27;;;;;;;3.85;0.70;;;;;;;;;;5024193;28;20042;-80
2022/08/07 07:49:55;;;;;;;3.33;0.70;;;;;;;;;;5023942;28;20054;-81
2022/08/07 07:52:43;;;;;;;1.95;0.70;;;;;;;;;;5020896;28;20049;-79
2022/08/07 07:55:13;;;;;;;5.32;1.08;;;;;;;;;;5023508;28;20122;-80
2022/08/07 07:57:41;;;;;;;3.58;0.90;;;;;;;;;;5023952;28;20461;-79
2022/08/07 08:00:19;;;;;;;3.33;0.88;;;;;;;;;;5016287;28;20110;-79
2022/08/07 08:02:56;;;;;;;1.20;0.60;;;;;;;;;;5014271;28;20108;-79
2022/08/07 08:05:33;;;;;;;3.22;0.50;;;;;;;;;;5010992;28;20045;-78
2022/08/07 08:08:19;;;;;;;2.35;0.70;;;;;;;;;;5016211;28;20046;-79
2022/08/07 08:11:06;;;;;;;1.80;0.68;;;;;;;;;;5012435;28;20533;-79
2022/08/07 08:13:34;;;;;;;4.22;0.70;;;;;;;;;;5015520;28;20125;-79
2022/08/07 08:16:23;;;;;;;4.38;0.70;;;;;;;;;;5013015;28;20474;-79
2022/08/07 08:18:52;;;;;;;4.78;2.30;;;;;;;;;;5004880;28;20046;-79
2022/08/07 08:27:25;;;;;;;3.28;0.90;;;;;;;;;;5032309;28;20081;-81
2022/08/07 08:30:06;;;;;;;3.20;0.52;;;;;;;;;;5032590;28;20030;-82
2022/08/07 08:32:40;;;;;;;2.00;0.80;;;;;;;;;;5017195;28;20060;-81
2022/08/07 08:35:12;;;;;;;2.03;1.00;;;;;;;;;;5010056;28;20078;-80
2022/08/07 08:37:44;;;;;;;2.60;0.77;;;;;;;;;;5010391;28;20053;-79
2022/08/07 08:40:31;;;;;;;1.52;0.75;;;;;;;;;;5011138;28;20125;-81
2022/08/07 08:43:02;;;;;;;4.03;0.60;;;;;;;;;;5009846;28;20502;-78
2022/08/07 08:45:37;;;;;;;2.25;0.40;;;;;;;;;;4995624;28;20046;-80
2022/08/07 08:48:31;;;;;;;3.85;0.45;;;;;;;;;;5019657;28;20613;-80
2022/08/07 08:51:23;;;;;;;1.10;0.60;;;;;;;;;;5008952;28;20050;-81
2022/08/07 08:54:16;;;;;;;1.70;0.68;;;;;;;;;;5007985;28;20205;-80
2022/08/07 08:56:46;;;;;;;1.63;0.60;;;;;;;;;;5008730;28;20046;-81
2022/08/07 08:59:22;;;;;;;1.60;0.43;;;;;;;;;;5009533;28;20045;-80
2022/08/07 09:02:04;;;;;;;0.77;0.40;;;;;;;;;;5010093;28;20053;-80
2022/08/07 09:04:40;;;;;;;0.93;0.57;;;;;;;;;;4989176;28;20056;-80
2022/08/07 09:07:23;;;;;;;2.25;0.65;;;;;;;;;;4990237;28;20519;-79
2022/08/07 09:10:00;;;;;;;1.73;0.55;;;;;;;;;;5007287;28;20445;-79
2022/08/07 09:12:37;;;;;;;2.15;0.57;;;;;;;;;;4989271;28;20049;-79
2022/08/07 09:15:05;;;;;;;2.53;0.65;;;;;;;;;;4993937;28;20067;-80
2022/08/07 09:17:52;;;;;;;1.02;0.47;;;;;;;;;;5004625;28;20053;-80
2022/08/07 09:20:37;;;;;;;2.55;0.55;;;;;;;;;;5009213;28;20104;-79
2022/08/07 09:23:04;;;;;;;1.23;0.60;;;;;;;;;;5012878;28;20057;-80
2022/08/07 09:25:53;;;;;;;3.97;0.68;;;;;;;;;;5012711;28;20048;-79
2022/08/07 09:28:28;;;;;;;1.65;0.65;;;;;;;;;;5019763;28;20109;-80
2022/08/07 09:31:14;;;;;;;3.15;0.57;;;;;;;;;;5013833;28;20056;-81
2022/08/07 09:33:48;;;;;;;1.33;0.50;;;;;;;;;;5025475;28;20041;-80
2022/08/07 09:36:52;;;;;;;3.00;0.60;;;;;;;;;;5029250;28;20113;-80
2022/08/07 09:39:26;;;;;;;11.20;0.85;;;;;;;;;;4988648;28;20106;-79
2022/08/07 09:42:21;;;;;;;1.17;0.30;;;;;;;;;;5030167;28;20544;-80
2022/08/07 09:44:59;;;;;;;2.55;0.60;;;;;;;;;;5006801;28;20089;-81
2022/08/07 09:48:01;;;;;;;1.83;0.60;;;;;;;;;;4997937;28;20652;-80
2022/08/07 09:50:46;;;;;;;1.40;0.50;;;;;;;;;;5015313;28;20084;-80
2022/08/07 09:53:18;;;;;;;0.63;0.30;;;;;;;;;;5015159;28;20104;-80
2022/08/07 09:56:12;;;;;;;2.08;0.50;;;;;;;;;;5015085;28;20113;-80
2022/08/07 09:58:54;;;;;;;2.55;0.50;;;;;;;;;;5020309;28;20054;-80
2022/08/07 10:01:20;;;;;;;2.15;0.70;;;;;;;;;;5016281;28;20139;-80
2022/08/07 10:04:25;;;;;;;3.13;0.50;;;;;;;;;;5013872;28;20535;-80
2022/08/07 10:06:58;;;;;;;1.15;0.55;;;;;;;;;;5023112;28;20057;-79
2022/08/07 10:09:29;;;;;;;3.55;0.70;;;;;;;;;;5026433;28;20054;-81
2022/08/07 10:12:21;;;;;;;4.10;0.73;;;;;;;;;;5004190;28;20046;-81
2022/08/07 10:15:09;;;;;;;0.77;0.50;;;;;;;;;;5004406;28;20157;-81
2022/08/07 10:18:09;;;;;;;3.38;0.60;;;;;;;;;;5020725;28;20046;-79
2022/08/07 10:20:56;;;;;;;3.75;0.80;;;;;;;;;;5009500;28;20049;-80
2022/08/07 10:23:22;;;;;;;2.00;0.63;;;;;;;;;;5007556;28;20536;-80
2022/08/07 10:26:08;;;;;;;1.55;0.70;;;;;;;;;;5007598;28;20521;-79
2022/08/07 10:28:35;;;;;;;1.52;0.50;;;;;;;;;;5007541;28;20052;-79
2022/08/07 10:31:20;;;;;;;1.63;0.57;;;;;;;;;;5009459;28;20060;-79
2022/08/07 10:33:52;;;;;;;3.03;0.57;;;;;;;;;;5007195;28;20111;-80
2022/08/07 10:36:49;;;;;;;1.35;0.50;;;;;;;;;;4989749;28;20050;-79
2022/08/07 10:39:31;;;;;;;1.95;0.70;;;;;;;;;;4991770;28;20170;-79
2022/08/07 10:42:17;;;;;;;3.58;0.70;;;;;;;;;;5009522;28;20518;-77
2022/08/07 10:44:56;;;;;;;2.45;0.73;;;;;;;;;;5013412;28;20423;-78
2022/08/07 10:47:26;;;;;;;4.45;0.70;;;;;;;;;;5012452;28;20050;-78
2022/08/07 10:50:18;;;;;;;1.95;0.50;;;;;;;;;;5010611;28;20224;-78
2022/08/07 10:52:54;;;;;;;1.17;0.68;;;;;;;;;;5010163;28;20510;-78
2022/08/07 10:55:25;;;;;;;1.88;0.70;;;;;;;;;;5011408;28;20068;-79
2022/08/07 10:58:19;;;;;;;2.80;0.50;;;;;;;;;;5012956;28;20132;-78
2022/08/07 11:01:16;;;;;;;2.90;0.57;;;;;;;;;;5006705;28;20057;-79
2022/08/07 11:03:50;;;;;;;3.22;0.63;;;;;;;;;;5014606;28;20050;-79
2022/08/07 11:06:51;;;;;;;2.10;0.70;;;;;;;;;;5014117;28;20053;-80
2022/08/07 11:09:21;;;;;;;0.77;0.45;;;;;;;;;;5012802;28;20145;-79
2022/08/07 11:12:12;;;;;;;2.50;0.70;;;;;;;;;;5013374;28;20109;-80
2022/08/07 11:14:49;;;;;;;1.27;0.52;;;;;;;;;;5013516;28;20072;-80
2022/08/07 11:17:37;;;;;;;2.70;0.65;;;;;;;;;;5011145;28;20046;-80
2022/08/07 11:20:19;;;;;;;1.58;0.63;;;;;;;;;;4999191;28;20056;-80
2022/08/07 11:23:01;;;;;;;5.65;0.70;;;;;;;;;;5014902;28;20042;-79
2022/08/07 11:25:33;;;;;;;1.52;0.60;;;;;;;;;;5013650;28;20096;-80
2022/08/07 11:28:15;;;;;;;4.57;0.63;;;;;;;;;;4997836;28;20437;-77
2022/08/07 11:31:01;;;;;;;2.72;0.60;;;;;;;;;;5013885;28;20054;-79
2022/08/07 11:33:43;;;;;;;2.17;0.68;;;;;;;;;;5013030;28;20058;-79
2022/08/07 11:36:31;;;;;;;1.02;0.50;;;;;;;;;;5013582;28;20168;-77
2022/08/07 11:38:59;;;;;;;2.85;0.73;;;;;;;;;;5009108;28;20438;-77
2022/08/07 11:41:28;;;;;;;1.30;0.60;;;;;;;;;;5008809;28;20050;-79
2022/08/07 11:44:41;;;;;;;1.70;0.60;;;;;;;;;;4995753;28;20073;-77
2022/08/07 11:47:37;;;;;;;1.30;0.63;;;;;;;;;;4994606;28;20611;-78
2022/08/07 11:50:37;;;;;;;1.10;0.60;;;;;;;;;;5022275;28;20264;-80
2022/08/07 11:53:24;;;;;;;1.50;0.70;;;;;;;;;;5028641;28;20045;-79
2022/08/07 11:56:05;;;;;;;1.20;0.65;;;;;;;;;;4997554;28;20054;-78
2022/08/07 11:58:54;;;;;;;1.23;0.80;;;;;;;;;;4990491;28;20054;-78
2022/08/07 12:01:41;;;;;;;1.63;0.80;;;;;;;;;;5005697;28;20046;-78
2022/08/07 12:04:44;;;;;;;2.90;0.90;;;;;;;;;;5006525;28;20053;-78
2022/08/07 12:07:18;;;;;;;2.45;0.70;;;;;;;;;;4999004;28;20257;-79
2022/08/07 12:10:16;;;;;;;2.05;0.70;;;;;;;;;;5006080;28;20162;-78
2022/08/07 12:12:52;;;;;;;1.48;0.60;;;;;;;;;;5003848;28;20168;-79
2022/08/07 12:15:25;;;;;;;1.90;0.60;;;;;;;;;;5007302;28;20081;-79
2022/08/07 12:18:19;;;;;;;2.05;0.60;;;;;;;;;;5005450;28;20058;-79
2022/08/07 12:20:55;;;;;;;1.60;0.65;;;;;;;;;;5005220;28;20160;-79
2022/08/07 12:23:28;;;;;;;2.10;0.70;;;;;;;;;;5008444;28;20081;-79
2022/08/07 12:26:32;;;;;;;3.80;0.60;;;;;;;;;;5005648;28;20387;-80
2022/08/07 12:29:18;;;;;;;1.20;0.70;;;;;;;;;;5008844;28;20045;-80
2022/08/07 12:32:05;;;;;;;2.03;0.70;;;;;;;;;;5010424;28;20087;-80
2022/08/07 12:34:39;;;;;;;1.25;0.68;;;;;;;;;;5012527;28;20045;-80
2022/08/07 12:37:09;;;;;;;1.60;0.60;;;;;;;;;;5013417;28;20046;-79
2022/08/07 12:39:49;;;;;;;3.47;0.60;;;;;;;;;;5010545;28;20053;-79
2022/08/07 12:42:20;;;;;;;3.78;0.70;;;;;;;;;;5007993;28;20058;-80
2022/08/07 12:44:53;;;;;;;3.03;0.68;;;;;;;;;;5011705;28;20480;-79
2022/08/07 12:47:36;;;;;;;3.05;0.60;;;;;;;;;;5001340;28;20132;-79
2022/08/07 12:50:05;;;;;;;4.68;0.60;;;;;;;;;;4992545;28;20257;-79
2022/08/07 12:52:54;;;;;;;1.77;0.90;;;;;;;;;;4990197;28;20064;-78
2022/08/07 12:55:36;;;;;;;2.40;0.68;;;;;;;;;;4992921;28;20418;-79
2022/08/07 12:58:27;;;;;;;1.13;0.80;;;;;;;;;;5021952;28;20069;-79
2022/08/07 13:01:00;;;;;;;3.25;0.70;;;;;;;;;;5007897;28;20111;-80
2022/08/07 13:03:46;;;;;;;6.35;0.80;;;;;;;;;;5010416;28;20534;-79
2022/08/07 13:06:51;;;;;;;2.28;0.80;;;;;;;;;;5004956;28;20050;-80
2022/08/07 13:09:45;;;;;;;1.48;0.70;;;;;;;;;;4997489;28;20047;-80
2022/08/07 13:12:38;;;;;;;3.10;0.60;;;;;;;;;;4997518;28;20137;-80
2022/08/07 13:15:11;;;;;;;2.70;0.70;;;;;;;;;;5005348;28;20046;-79
2022/08/07 13:18:02;;;;;;;3.40;0.70;;;;;;;;;;5006402;28;20050;-79
2022/08/07 13:20:37;;;;;;;3.53;0.80;;;;;;;;;;5009701;28;20081;-79
2022/08/07 13:23:09;;;;;;;1.42;0.73;;;;;;;;;;4986736;28;20046;-80
2022/08/07 13:26:01;;;;;;;1.17;0.70;;;;;;;;;;4990193;28;20053;-80
2022/08/07 13:28:42;;;;;;;1.38;0.70;;;;;;;;;;4992074;28;20077;-79
2022/08/07 13:31:13;;;;;;;5.03;0.75;;;;;;;;;;4994195;28;20076;-80
2022/08/07 13:33:39;;;;;;;1.35;0.60;;;;;;;;;;4996269;28;20062;-81
2022/08/07 13:36:29;;;;;;;2.28;0.80;;;;;;;;;;4990611;28;20054;-80
2022/08/07 13:39:01;;;;;;;1.73;0.70;;;;;;;;;;5010949;28;20132;-79
2022/08/07 13:42:05;;;;;;;3.75;0.75;;;;;;;;;;5014282;28;20131;-79
2022/08/07 13:44:32;;;;;;;2.50;0.70;;;;;;;;;;4998595;28;20085;-79
2022/08/07 13:47:03;;;;;;;3.53;0.93;;;;;;;;;;5010556;28;20054;-80
2022/08/07 13:49:37;;;;;;;1.95;0.88;;;;;;;;;;5004978;28;20117;-79
2022/08/07 13:52:25;;;;;;;1.67;0.70;;;;;;;;;;5014137;28;20057;-79
2022/08/07 13:55:07;;;;;;;4.40;1.05;;;;;;;;;;5008692;28;20465;-78
2022/08/07 13:57:41;;;;;;;1.50;0.70;;;;;;;;;;5005442;28;20097;-79
2022/08/07 14:00:34;;;;;;;0.93;0.60;;;;;;;;;;4994920;28;20045;-80
2022/08/07 14:03:20;;;;;;;2.88;0.73;;;;;;;;;;4992479;28;20086;-79
2022/08/07 14:06:08;;;;;;;1.10;0.70;;;;;;;;;;4991248;28;20059;-79
2022/08/07 14:08:38;;;;;;;2.85;0.60;;;;;;;;;;5004171;28;20046;-80
2022/08/07 14:11:05;;;;;;;1.35;0.80;;;;;;;;;;4994289;28;20607;-81
2022/08/07 14:13:46;;;;;;;2.03;0.60;;;;;;;;;;4998007;28;20125;-80
2022/08/07 14:16:14;;;;;;;1.27;0.73;;;;;;;;;;5015747;28;20062;-79
2022/08/07 14:18:46;;;;;;;1.15;0.65;;;;;;;;;;5013384;28;20117;-79
2022/08/07 14:21:26;;;;;;;0.93;0.80;;;;;;;;;;5001252;28;20153;-79
2022/08/07 14:24:18;;;;;;;3.95;0.70;;;;;;;;;;5011240;28;20480;-81
2022/08/07 14:26:54;;;;;;;7.15;0.95;;;;;;;;;;5013000;28;20100;-79
2022/08/07 14:29:40;;;;;;;6.07;0.85;;;;;;;;;;4992875;28;20436;-80
2022/08/07 14:32:28;;;;;;;3.63;0.70;;;;;;;;;;4974708;28;20057;-78
2022/08/07 14:34:56;;;;;;;2.40;0.77;;;;;;;;;;4996286;28;20072;-80
2022/08/07 14:37:23;;;;;;;4.60;0.88;;;;;;;;;;5009855;28;20092;-80
2022/08/07 14:40:06;;;;;;;2.80;0.75;;;;;;;;;;5009061;28;20054;-80
2022/08/07 14:43:11;;;;;;;5.97;1.00;;;;;;;;;;5007043;28;20509;-78
2022/08/07 14:45:58;;;;;;;2.00;0.70;;;;;;;;;;5003286;28;20306;-80
2022/08/07 14:48:27;;;;;;;1.33;0.70;;;;;;;;;;5012974;28;20331;-79
2022/08/07 14:50:59;;;;;;;2.25;0.73;;;;;;;;;;5014039;28;20062;-79
2022/08/07 14:53:28;;;;;;;1.13;0.80;;;;;;;;;;5002345;28;20058;-80
2022/08/07 14:56:16;;;;;;;1.35;0.73;;;;;;;;;;4997632;28;20064;-81
2022/08/07 14:58:58;;;;;;;5.28;0.70;;;;;;;;;;4993927;28;20177;-80
2022/08/07 15:01:27;;;;;;;6.57;0.75;;;;;;;;;;4973109;28;20074;-80
2022/08/07 15:04:09;;;;;;;1.75;0.75;;;;;;;;;;4974801;28;20051;-79
2022/08/07 15:06:38;;;;;;;0.95;0.60;;;;;;;;;;5005987;28;20084;-79
2022/08/07 15:09:18;;;;;;;1.58;0.70;;;;;;;;;;5020161;28;20060;-79
2022/08/07 15:12:07;;;;;;;1.70;0.70;;;;;;;;;;5025617;28;20113;-81
2022/08/07 15:14:35;;;;;;;0.95;0.60;;;;;;;;;;4998999;28;20496;-79
2022/08/07 15:17:30;;;;;;;4.93;0.70;;;;;;;;;;4998033;28;20579;-79
2022/08/07 15:20:00;;;;;;;4.88;0.70;;;;;;;;;;5007882;28;20068;-80
2022/08/07 15:22:49;;;;;;;2.28;0.70;;;;;;;;;;5004738;28;20057;-79
2022/08/07 15:25:24;;;;;;;5.93;0.65;;;;;;;;;;5000917;28;20667;-79
2022/08/07 15:28:03;;;;;;;3.10;0.80;;;;;;;;;;5007341;28;20471;-78
2022/08/07 15:30:50;;;;;;;5.57;0.90;;;;;;;;;;4998140;28;20522;-79
2022/08/07 15:33:31;;;;;;;2.75;0.70;;;;;;;;;;4987839;28;20046;-79
2022/08/07 15:36:01;;;;;;;1.90;0.73;;;;;;;;;;5009588;28;20030;-79
2022/08/07 15:38:32;;;;;;;5.97;0.70;;;;;;;;;;5017705;28;20122;-80
2022/08/07 15:41:22;;;;;;;0.70;0.60;;;;;;;;;;5017028;28;20046;-81
2022/08/07 15:44:09;;;;;;;2.45;1.00;;;;;;;;;;5005557;28;20070;-80
2022/08/07 15:46:36;;;;;;;2.70;0.80;;;;;;;;;;5008341;28;20041;-79
2022/08/07 15:49:27;;;;;;;3.85;1.10;;;;;;;;;;4979144;28;20435;-80
2022/08/07 15:52:17;;;;;;;2.65;0.70;;;;;;;;;;4979130;28;20067;-79